Time;durP1;ratioP1;P1;durP2;ratioP2;P2;SDS_P1;SDS_P2;PMS_P1;PMS_P2;Temp;Humidity;BMP_temperature;BMP_pressure;BME280_temperature;BME280_humidity;BME280_pressure;Samples;Min_cycle;Max_cycle;Signal;HPM_P1;HPM_P2
2023/04/05 00:02:09;;;;;;;;;;;;;;;12.19;47.88;98021.31;4957171;28;19981;-78
2023/04/05 00:04:35;;;;;;;;;;;;;;;12.19;47.95;98020.47;4957323;28;19972;-78
2023/04/05 00:07:01;;;;;;;;;;;;;;;12.13;48.01;98020.09;4956615;28;19918;-78
2023/04/05 00:09:27;;;;;;;;;;;;;;;12.11;47.87;98023.81;4956051;28;19924;-79
2023/04/05 00:11:52;;;;;;;;;;;;;;;12.08;47.73;98024.94;4957564;28;19918;-79
2023/04/05 00:14:18;;;;;;;;;;;;;;;12.06;47.94;98024.25;4957080;28;20057;-79
2023/04/05 00:16:43;;;;;;;;;;;;;;;12.04;47.91;98020.97;4973011;28;19919;-78
2023/04/05 00:19:11;;;;;;;;;;;;;;;12.03;47.73;98031.56;4972967;28;20378;-79
2023/04/05 00:21:38;;;;;;;;;;;;;;;12.00;48.10;98024.00;4972888;28;20373;-78
2023/04/05 00:24:04;;;;;;;;;;;;;;;11.95;47.83;98034.88;4972835;28;19964;-78
2023/04/05 00:26:29;;;;;;;;;;;;;;;11.92;48.27;98035.19;4973954;28;20346;-78
2023/04/05 00:28:54;;;;;;;;;;;;;;;11.90;47.91;98034.47;4971902;28;20016;-78
2023/04/05 00:31:20;;;;;;;;;;;;;;;11.87;48.06;98039.97;4971317;28;19918;-77
2023/04/05 00:33:45;;;;;;;;;;;;;;;11.82;48.48;98045.63;4973354;28;20373;-78
2023/04/05 00:36:11;;;;;;;;;;;;;;;11.80;48.04;98041.50;4972106;28;19940;-78
2023/04/05 00:38:36;;;;;;;;;;;;;;;11.75;48.48;98047.19;4972606;28;19918;-78
2023/04/05 00:41:02;;;;;;;;;;;;;;;11.71;48.21;98046.63;4972754;28;19953;-77
2023/04/05 00:43:27;;;;;;;;;;;;;;;11.68;48.29;98051.31;4972259;28;20329;-78
2023/04/05 00:45:53;;;;;;;;;;;;;;;11.64;48.49;98056.00;4972131;28;19950;-78
2023/04/05 00:48:19;;;;;;;;;;;;;;;11.62;48.46;98055.31;4972627;28;19922;-78
2023/04/05 00:50:45;;;;;;;;;;;;;;;11.59;48.55;98050.34;4972211;28;20283;-74
2023/04/05 00:53:10;;;;;;;;;;;;;;;11.56;48.66;98055.91;4973028;28;20346;-78
2023/04/05 00:55:35;;;;;;;;;;;;;;;11.53;48.45;98053.56;4972427;28;20005;-77
2023/04/05 00:58:01;;;;;;;;;;;;;;;11.50;48.65;98059.06;4973660;28;19918;-78
2023/04/05 01:00:26;;;;;;;;;;;;;;;11.47;48.47;98062.75;4972657;28;20313;-78
2023/04/05 01:02:51;;;;;;;;;;;;;;;11.44;48.66;98065.66;4972548;28;19918;-78
2023/04/05 01:05:20;;;;;;;;;;;;;;;11.41;48.81;98068.53;4973632;28;19922;-79
2023/04/05 01:07:48;;;;;;;;;;;;;;;11.36;48.65;98063.72;4973346;28;19990;-78
2023/04/05 01:10:13;;;;;;;;;;;;;;;11.33;48.84;98061.41;4972338;28;20397;-79
2023/04/05 01:12:39;;;;;;;;;;;;;;;11.32;48.93;98069.38;4972429;28;19962;-78
2023/04/05 01:15:04;;;;;;;;;;;;;;;11.28;48.67;98068.00;4973785;28;19932;-78
2023/04/05 01:17:35;;;;;;;;;;;;;;;11.24;49.09;98070.06;4956260;28;19924;-79
2023/04/05 01:20:02;;;;;;;;;;;;;;;11.22;49.21;98074.59;4972241;28;19945;-78
2023/04/05 01:22:46;;;;;;;;;;;;;;;11.17;49.12;98088.06;4959540;28;19992;-78
2023/04/05 01:25:12;;;;;;;;;;;;;;;11.15;48.97;98086.59;4977096;28;19972;-78
2023/04/05 01:27:57;;;;;;;;;;;;;;;11.11;49.27;98093.84;4976976;28;19962;-78
2023/04/05 01:30:33;;;;;;;;;;;;;;;11.10;49.23;98091.38;4962789;28;19918;-78
2023/04/05 01:33:08;;;;;;;;;;;;;;;11.07;49.33;98094.25;4959716;28;19922;-78
2023/04/05 01:35:38;;;;;;;;;;;;;;;11.02;49.54;98087.66;4975861;28;20210;-79
2023/04/05 01:38:04;;;;;;;;;;;;;;;11.00;49.53;98086.13;4959469;28;20345;-79
2023/04/05 01:40:30;;;;;;;;;;;;;;;10.97;49.48;98089.00;4959359;28;19949;-79
2023/04/05 01:42:55;;;;;;;;;;;;;;;10.95;49.49;98083.94;4959564;28;19918;-79
2023/04/05 01:45:21;;;;;;;;;;;;;;;10.94;49.34;98087.53;4976407;28;19998;-80
2023/04/05 01:47:46;;;;;;;;;;;;;;;10.92;49.41;98088.59;4958848;28;19969;-80
2023/04/05 01:50:11;;;;;;;;;;;;;;;10.90;49.39;98088.75;4974599;28;19925;-80
2023/04/05 01:52:37;;;;;;;;;;;;;;;10.86;49.15;98087.34;4976658;28;20035;-79
2023/04/05 01:55:02;;;;;;;;;;;;;;;10.83;49.34;98090.22;4942748;28;19919;-78
2023/04/05 01:57:27;;;;;;;;;;;;;;;10.80;49.73;98087.88;4958887;28;19956;-78
2023/04/05 01:59:53;;;;;;;;;;;;;;;10.78;49.64;98081.97;4958278;28;20033;-79
2023/04/05 02:02:18;;;;;;;;;;;;;;;10.74;49.70;98085.84;4959176;28;19922;-79
2023/04/05 02:04:43;;;;;;;;;;;;;;;10.72;49.37;98080.75;4974644;28;19925;-79
2023/04/05 02:07:09;;;;;;;;;;;;;;;10.70;49.48;98087.88;4974757;28;19918;-80
2023/04/05 02:09:34;;;;;;;;;;;;;;;10.68;49.65;98081.97;4976002;28;20349;-79
2023/04/05 02:12:00;;;;;;;;;;;;;;;10.67;49.52;98088.13;4975977;28;19953;-79
2023/04/05 02:14:25;;;;;;;;;;;;;;;10.65;49.48;98087.44;4960119;28;19929;-78
2023/04/05 02:16:54;;;;;;;;;;;;;;;10.63;49.66;98086.75;4974714;28;20444;-77
2023/04/05 02:19:21;;;;;;;;;;;;;;;10.61;49.60;98086.06;4975020;28;19957;-79
2023/04/05 02:21:52;;;;;;;;;;;;;;;10.59;49.56;98088.78;4974731;28;19918;-77
2023/04/05 02:24:18;;;;;;;;;;;;;;;10.59;49.63;98094.00;4974780;28;19924;-78
2023/04/05 02:26:43;;;;;;;;;;;;;;;10.59;49.79;98094.00;4974376;28;19918;-79
2023/04/05 02:29:08;;;;;;;;;;;;;;;10.58;49.89;98094.16;4973631;28;20353;-79
2023/04/05 02:31:34;;;;;;;;;;;;;;;10.56;49.60;98101.28;4975544;28;20424;-79
2023/04/05 02:33:59;;;;;;;;;;;;;;;10.56;49.61;98102.09;4973037;28;19918;-79
2023/04/05 02:36:27;;;;;;;;;;;;;;;10.56;49.71;98098.69;4974615;28;20301;-79
2023/04/05 02:38:52;;;;;;;;;;;;;;;10.56;49.58;98107.31;4975482;28;19918;-78
2023/04/05 02:41:18;;;;;;;;;;;;;;;10.56;49.46;98109.94;4974143;28;19918;-78
2023/04/05 02:43:45;;;;;;;;;;;;;;;10.55;49.44;98102.25;4973910;28;19950;-79
2023/04/05 02:46:10;;;;;;;;;;;;;;;10.56;49.52;98098.69;4975407;28;19918;-79
2023/04/05 02:48:36;;;;;;;;;;;;;;;10.55;49.20;98104.84;4973677;28;20414;-79
2023/04/05 02:51:01;;;;;;;;;;;;;;;10.55;49.49;98105.69;4973834;28;19919;-79
2023/04/05 02:53:26;;;;;;;;;;;;;;;10.55;49.24;98100.47;4975195;28;20349;-79
2023/04/05 02:55:55;;;;;;;;;;;;;;;10.54;49.51;98104.03;4973090;28;19996;-79
2023/04/05 02:58:21;;;;;;;;;;;;;;;10.56;49.30;98109.94;4974070;28;19925;-79
2023/04/05 03:00:53;;;;;;;;;;;;;;;10.57;49.35;98111.59;4974068;28;19918;-79
2023/04/05 03:03:19;;;;;;;;;;;;;;;10.57;49.24;98103.75;4974010;28;19929;-79
2023/04/05 03:05:46;;;;;;;;;;;;;;;10.55;49.48;98105.69;4973811;28;19918;-79
2023/04/05 03:08:17;;;;;;;;;;;;;;;10.57;49.14;98114.22;4973702;28;19918;-78
2023/04/05 03:10:43;;;;;;;;;;;;;;;10.57;49.30;98116.81;4973797;28;20004;-78
2023/04/05 03:13:09;;;;;;;;;;;;;;;10.57;49.02;98123.81;4973629;28;19922;-78
2023/04/05 03:15:35;;;;;;;;;;;;;;;10.55;48.98;98121.34;4973175;28;19929;-79
2023/04/05 03:18:00;;;;;;;;;;;;;;;10.55;49.25;98125.72;4973630;28;20483;-80
2023/04/05 03:20:26;;;;;;;;;;;;;;;10.52;49.22;98129.44;4973560;28;19965;-80
2023/04/05 03:22:51;;;;;;;;;;;;;;;10.53;49.06;98133.72;4973527;28;19933;-79
2023/04/05 03:25:17;;;;;;;;;;;;;;;10.52;49.19;98134.66;4974991;28;20282;-83
2023/04/05 03:27:42;;;;;;;;;;;;;;;10.52;48.79;98139.06;4973561;28;20278;-83
2023/04/05 03:30:07;;;;;;;;;;;;;;;10.50;49.19;98140.00;4974581;28;19922;-79
2023/04/05 03:32:33;;;;;;;;;;;;;;;10.50;49.06;98140.00;4973345;28;20414;-81
2023/04/05 03:34:58;;;;;;;;;;;;;;;10.49;49.12;98143.56;4973407;28;19922;-75
2023/04/05 03:37:23;;;;;;;;;;;;;;;10.49;48.95;98146.19;4972157;28;19918;-81
2023/04/05 03:39:49;;;;;;;;;;;;;;;10.48;49.16;98146.31;4973183;28;20390;-82
2023/04/05 03:42:14;;;;;;;;;;;;;;;10.49;49.04;98143.56;4973214;28;19918;-78
2023/04/05 03:44:40;;;;;;;;;;;;;;;10.66;62.19;98152.56;4974182;28;19918;-76
2023/04/05 03:47:05;;;;;;;;;;;;;;;10.87;64.44;98156.91;4973759;28;20293;-79
2023/04/05 03:49:31;;;;;;;;;;;;;;;10.93;62.64;98163.38;4973001;28;19925;-80
2023/04/05 03:51:56;;;;;;;;;;;;;;;10.97;62.32;98164.75;4972168;28;20397;-81
2023/04/05 03:54:21;;;;;;;;;;;;;;;11.01;62.18;98166.16;4973117;28;20013;-77
2023/04/05 03:56:47;;;;;;;;;;;;;;;11.90;70.72;98165.25;4974442;28;19960;-78
2023/04/05 03:59:12;;;;;;;;;;;;;;;12.53;68.68;98171.75;4974193;28;19918;-77
2023/04/05 04:01:37;;;;;;;;;;;;;;;12.58;66.07;98170.34;4973562;28;19922;-76
2023/04/05 04:04:03;;;;;;;;;;;;;;;13.30;66.45;98167.06;4973137;28;19985;-79
2023/04/05 04:06:29;;;;;;;;;;;;;;;13.68;64.27;98170.44;4972528;28;20349;-82
2023/04/05 04:08:56;;;;;;;;;;;;;;;13.69;63.63;98179.91;4983797;28;19918;-87
2023/04/05 04:11:22;;;;;;;;;;;;;;;13.49;60.48;98179.22;4981772;28;20069;-86
2023/04/05 04:13:47;;;;;;;;;;;;;;;13.42;64.37;98186.88;4973403;28;19962;-73
2023/04/05 04:16:12;;;;;;;;;;;;;;;13.46;62.99;98182.19;4973365;28;19933;-78
2023/04/05 04:18:38;;;;;;;;;;;;;;;13.49;63.94;98181.84;4973009;28;19922;-80
2023/04/05 04:21:06;;;;;;;;;;;;;;;13.70;61.96;98184.19;4974329;28;19918;-79
2023/04/05 04:23:32;;;;;;;;;;;;;;;14.23;57.73;98192.97;4972652;28;19926;-76
2023/04/05 04:25:57;;;;;;;;;;;;;;;15.24;53.45;98189.72;4974028;28;20465;-73
2023/04/05 04:28:23;;;;;;;;;;;;;;;15.81;51.44;98185.56;4973678;28;20009;-73
2023/04/05 04:30:49;;;;;;;;;;;;;;;16.11;49.57;98181.44;4972385;28;19922;-72
2023/04/05 04:33:16;;;;;;;;;;;;;;;17.02;46.88;98189.16;4973743;28;19919;-72
2023/04/05 04:35:45;;;;;;;;;;;;;;;18.15;44.13;98185.94;4972227;28;19925;-72
2023/04/05 04:38:19;;;;;;;;;;;;;;;19.03;41.72;98186.19;4972544;28;20413;-72
2023/04/05 04:40:49;;;;;;;;;;;;;;;20.08;38.67;98181.34;4972668;28;20297;-80
2023/04/05 04:43:17;;;;;;;;;;;;;;;20.80;37.19;98186.56;4972697;28;19925;-77
2023/04/05 04:45:46;;;;;;;;;;;;;;;20.69;36.60;98180.78;4972683;28;19918;-78
2023/04/05 04:48:12;;;;;;;;;;;;;;;21.14;34.97;98178.53;4972778;28;20390;-80
2023/04/05 04:50:38;;;;;;;;;;;;;;;19.97;36.81;98190.66;4973606;28;20293;-76
2023/04/05 04:53:03;;;;;;;;;;;;;;;20.13;36.36;98194.88;4972126;28;19925;-77
2023/04/05 04:55:29;;;;;;;;;;;;;;;21.20;34.41;98189.38;4973897;28;19919;-76
2023/04/05 04:57:54;;;;;;;;;;;;;;;20.60;34.41;98187.22;4976033;28;20429;-76
2023/04/05 05:00:20;;;;;;;;;;;;;;;20.42;36.24;98193.03;4977334;28;20012;-72
2023/04/05 05:02:46;;;;;;;;;;;;;;;20.54;35.05;98193.28;4975589;28;20369;-69
2023/04/05 05:05:11;;;;;;;;;;;;;;;20.53;35.19;98197.78;4975797;28;20031;-73
2023/04/05 05:07:37;;;;;;;;;;;;;;;20.74;34.11;98188.16;4975572;28;20293;-73
2023/04/05 05:10:03;;;;;;;;;;;;;;;20.06;34.88;98196.63;4973857;28;19926;-75
2023/04/05 05:12:30;;;;;;;;;;;;;;;19.95;34.82;98199.78;4974945;28;19980;-73
2023/04/05 05:14:55;;;;;;;;;;;;;;;21.35;32.38;98207.78;4970382;28;19922;-75
2023/04/05 05:17:22;;;;;;;;;;;;;;;22.31;29.98;98201.44;4959579;28;20405;-73
2023/04/05 05:19:47;;;;;;;;;;;;;;;22.95;29.31;98206.00;4960207;28;19953;-73
2023/04/05 05:22:12;;;;;;;;;;;;;;;23.95;27.62;98199.38;4959137;28;19966;-75
2023/04/05 05:24:38;;;;;;;;;;;;;;;24.77;25.92;98192.34;4959213;28;19929;-74
2023/04/05 05:27:03;;;;;;;;;;;;;;;25.66;24.59;98203.34;4959100;28;19919;-75
2023/04/05 05:29:28;;;;;;;;;;;;;;;26.45;23.54;98202.31;4959005;28;19925;-75
2023/04/05 05:31:54;;;;;;;;;;;;;;;27.13;22.70;98194.69;4976653;28;19918;-74
2023/04/05 05:34:19;;;;;;;;;;;;;;;27.71;21.97;98198.19;4975398;28;19918;-75
2023/04/05 05:36:45;;;;;;;;;;;;;;;27.50;22.10;98195.16;4959167;28;19919;-76
2023/04/05 05:39:11;;;;;;;;;;;;;;;27.42;22.34;98200.88;4975226;28;19918;-75
2023/04/05 05:41:36;;;;;;;;;;;;;;;26.53;22.79;98201.97;4975152;28;19927;-75
2023/04/05 05:44:01;;;;;;;;;;;;;;;25.79;22.94;98196.97;4959116;28;19918;-76
2023/04/05 05:46:27;;;;;;;;;;;;;;;25.21;23.38;98196.53;4974755;28;19918;-76
2023/04/05 05:48:52;;;;;;;;;;;;;;;24.40;24.30;98195.75;4974927;28;19918;-77
2023/04/05 05:51:17;;;;;;;;;;;;;;;23.70;25.13;98196.66;4958588;28;19925;-75
2023/04/05 05:53:43;;;;;;;;;;;;;;;23.11;25.60;98193.28;4958882;28;19933;-78
2023/04/05 05:56:08;;;;;;;;;;;;;;;22.67;25.92;98202.81;4959237;28;19976;-77
2023/04/05 05:58:33;;;;;;;;;;;;;;;22.26;26.78;98209.19;4976395;28;19925;-78
2023/04/05 06:00:59;;;;;;;;;;;;;;;21.82;27.25;98209.59;4959050;28;20419;-78
2023/04/05 06:03:29;;;;;;;;;;;;;;;21.52;27.67;98217.06;4959127;28;19918;-77
2023/04/05 06:05:55;;;;;;;;;;;;;;;21.24;27.44;98219.81;4959905;28;20436;-73
2023/04/05 06:08:20;;;;;;;;;;;;;;;21.03;27.92;98224.22;4956894;28;19918;-79
2023/04/05 06:10:45;;;;;;;;;;;;;;;20.73;28.67;98224.47;4976058;28;19918;-77
2023/04/05 06:13:11;;;;;;;;;;;;;;;20.50;28.89;98224.69;4975873;28;19934;-75
2023/04/05 06:15:36;;;;;;;;;;;;;;;21.24;27.77;98228.59;4975906;28;19930;-76
2023/04/05 06:18:01;;;;;;;;;;;;;;;21.45;27.35;98232.94;4958488;28;19929;-77
2023/04/05 06:20:28;;;;;;;;;;;;;;;22.30;26.19;98232.53;4975022;28;19922;-77
2023/04/05 06:22:53;;;;;;;;;;;;;;;23.16;25.58;98236.06;4958889;28;19941;-76
2023/04/05 06:25:19;;;;;;;;;;;;;;;23.36;25.09;98236.00;4975838;28;20381;-76
2023/04/05 06:27:44;;;;;;;;;;;;;;;23.27;25.04;98237.25;4958063;28;20396;-77
2023/04/05 06:30:10;;;;;;;;;;;;;;;22.99;25.44;98241.00;4976182;28;19973;-77
2023/04/05 06:32:35;;;;;;;;;;;;;;;22.92;25.44;98241.03;4958477;28;19925;-74
2023/04/05 06:35:02;;;;;;;;;;;;;;;22.77;25.74;98249.25;4958269;28;19982;-75
2023/04/05 06:37:28;;;;;;;;;;;;;;;22.53;26.13;98248.06;4958578;28;19924;-75
2023/04/05 06:39:53;;;;;;;;;;;;;;;22.33;26.18;98256.06;4958260;28;19918;-72
2023/04/05 06:42:19;;;;;;;;;;;;;;;22.30;26.21;98256.47;4958114;28;19977;-74
2023/04/05 06:44:44;;;;;;;;;;;;;;;22.83;25.68;98258.25;4975349;28;19918;-79
2023/04/05 06:47:10;;;;;;;;;;;;;;;23.56;25.22;98262.56;4957994;28;19918;-73
2023/04/05 06:49:35;;;;;;;;;;;;;;;24.10;24.69;98259.56;4975484;28;19922;-75
2023/04/05 06:52:01;;;;;;;;;;;;;;;24.16;24.72;98266.72;4975756;28;19968;-75
2023/04/05 06:54:27;;;;;;;;;;;;;;;24.05;24.79;98267.41;4957899;28;19919;-74
2023/04/05 06:56:52;;;;;;;;;;;;;;;24.25;24.58;98262.75;4957743;28;19925;-74
2023/04/05 06:59:17;;;;;;;;;;;;;;;24.89;23.72;98268.78;4974965;28;19924;-75
2023/04/05 07:01:43;;;;;;;;;;;;;;;25.36;23.62;98259.44;4958181;28;19918;-74
2023/04/05 07:04:08;;;;;;;;;;;;;;;25.69;22.78;98264.34;4957854;28;19929;-74
2023/04/05 07:06:37;;;;;;;;;;;;;;;25.99;22.98;98261.69;4975056;28;19931;-75
2023/04/05 07:09:03;;;;;;;;;;;;;;;26.25;22.61;98264.19;4975058;28;19925;-75
2023/04/05 07:11:31;;;;;;;;;;;;;;;26.50;22.46;98272.84;4957102;28;20010;-75
2023/04/05 07:13:57;;;;;;;;;;;;;;;26.77;22.04;98280.41;4957492;28;19926;-74
2023/04/05 07:16:22;;;;;;;;;;;;;;;27.01;21.52;98277.72;4957936;28;19923;-74
2023/04/05 07:18:48;;;;;;;;;;;;;;;27.29;21.58;98273.50;4956826;28;20037;-75
2023/04/05 07:21:13;;;;;;;;;;;;;;;27.62;21.22;98276.31;4974579;28;20305;-75
2023/04/05 07:23:39;;;;;;;;;;;;;;;27.90;21.08;98272.00;4974431;28;19918;-74
2023/04/05 07:26:04;;;;;;;;;;;;;;;28.31;20.18;98275.41;4957373;28;20421;-75
2023/04/05 07:28:31;;;;;;;;;;;;;;;28.64;19.85;98279.19;4957038;28;19970;-75
2023/04/05 07:30:56;;;;;;;;;;;;;;;29.00;19.40;98282.38;4957013;28;19925;-74
2023/04/05 07:33:22;;;;;;;;;;;;;;;29.45;19.11;98285.91;4974217;28;20001;-76
2023/04/05 07:35:53;;;;;;;;;;;;;;;30.07;18.40;98276.63;4974509;28;19980;-78
2023/04/05 07:38:18;;;;;;;;;;;;;;;30.86;17.24;98279.66;4974713;28;19929;-72
2023/04/05 07:40:44;;;;;;;;;;;;;;;31.37;16.86;98282.63;4957035;28;20014;-73
2023/04/05 07:43:09;;;;;;;;;;;;;;;32.24;16.10;98279.31;4956874;28;20313;-75
2023/04/05 07:45:34;;;;;;;;;;;;;;;33.16;15.72;98282.97;4941019;28;19926;-76
2023/04/05 07:48:00;;;;;;;;;;;;;;;33.78;15.11;98282.72;4956820;28;20321;-75
2023/04/05 07:50:26;;;;;;;;;;;;;;;33.83;15.09;98274.59;4957098;28;20353;-74
2023/04/05 07:52:51;;;;;;;;;;;;;;;33.78;15.25;98280.00;4957357;28;19925;-74
2023/04/05 07:55:16;;;;;;;;;;;;;;;33.41;15.69;98286.69;4956715;28;20349;-74
2023/04/05 07:57:41;;;;;;;;;;;;;;;33.24;16.41;98282.44;4956846;28;19965;-74
2023/04/05 08:00:10;;;;;;;;;;;;;;;33.17;16.38;98282.72;4974499;28;19930;-74
2023/04/05 08:02:35;;;;;;;;;;;;;;;33.33;15.99;98285.38;4957577;28;20352;-74
2023/04/05 08:05:01;;;;;;;;;;;;;;;33.35;16.34;98284.00;4972790;28;19918;-74
2023/04/05 08:07:26;;;;;;;;;;;;;;;32.37;16.70;98285.25;4940723;28;19918;-74
2023/04/05 08:09:56;;;;;;;;;;;;;;;31.62;16.81;98291.09;4972986;28;19918;-75
2023/04/05 08:12:21;;;;;;;;;;;;;;;30.90;17.42;98288.84;4957840;28;19953;-74
2023/04/05 08:14:46;;;;;;;;;;;;;;;30.31;17.91;98284.34;4961034;28;19965;-76
2023/04/05 08:17:13;;;;;;;;;;;;;;;29.77;18.23;98288.66;4972202;28;19922;-75
2023/04/05 08:19:38;;;;;;;;;;;;;;;29.30;18.58;98285.72;4972788;28;19926;-74
2023/04/05 08:22:04;;;;;;;;;;;;;;;28.67;19.06;98288.59;4972539;28;20016;-74
2023/04/05 08:24:29;;;;;;;;;;;;;;;28.14;19.49;98285.31;4972286;28;19918;-75
2023/04/05 08:26:55;;;;;;;;;;;;;;;28.09;19.54;98283.38;4972676;28;19918;-74
2023/04/05 08:29:20;;;;;;;;;;;;;;;28.08;19.81;98284.41;4971963;28;20329;-76
2023/04/05 08:31:45;;;;;;;;;;;;;;;27.85;19.88;98288.00;4975686;28;19941;-75
2023/04/05 08:34:11;;;;;;;;;;;;;;;27.32;20.44;98289.13;4976910;28;19918;-74
2023/04/05 08:36:36;;;;;;;;;;;;;;;26.93;20.51;98300.34;4976779;28;19918;-74
2023/04/05 08:39:02;;;;;;;;;;;;;;;26.54;20.94;98290.06;4976809;28;19954;-74
2023/04/05 08:41:30;;;;;;;;;;;;;;;26.34;21.00;98308.28;4976411;28;19957;-75
2023/04/05 08:43:56;;;;;;;;;;;;;;;26.00;21.57;98299.97;4976957;28;19925;-74
2023/04/05 08:46:22;;;;;;;;;;;;;;;25.63;21.98;98300.00;4976934;28;19918;-76
2023/04/05 08:48:47;;;;;;;;;;;;;;;25.33;22.21;98300.78;4976051;28;20017;-75
2023/04/05 08:51:13;;;;;;;;;;;;;;;25.05;22.41;98309.28;4976362;28;19918;-74
2023/04/05 08:53:38;;;;;;;;;;;;;;;24.76;22.75;98316.13;4976305;28;20388;-74
2023/04/05 08:56:04;;;;;;;;;;;;;;;24.39;23.19;98306.13;4976236;28;19918;-72
2023/04/05 08:58:30;;;;;;;;;;;;;;;24.08;23.60;98313.09;4976866;28;20378;-74
2023/04/05 09:00:55;;;;;;;;;;;;;;;23.69;24.26;98316.78;4975440;28;19925;-74
2023/04/05 09:03:21;;;;;;;;;;;;;;;23.36;24.54;98312.41;4976374;28;20397;-74
2023/04/05 09:05:50;;;;;;;;;;;;;;;23.07;24.90;98319.81;4976226;28;20008;-73
2023/04/05 09:08:16;;;;;;;;;;;;;;;22.73;25.25;98319.06;4976198;28;19941;-75
2023/04/05 09:10:41;;;;;;;;;;;;;;;22.47;25.44;98317.19;4975897;28;20821;-74
2023/04/05 09:13:07;;;;;;;;;;;;;;;22.23;25.84;98328.22;4975955;28;19918;-73
2023/04/05 09:15:36;;;;;;;;;;;;;;;21.95;25.88;98322.19;4977179;28;20397;-76
2023/04/05 09:18:01;;;;;;;;;;;;;;;21.69;26.27;98321.91;4959690;28;20016;-75
2023/04/05 09:20:26;;;;;;;;;;;;;;;21.46;26.29;98324.06;4959770;28;19918;-73
2023/04/05 09:22:52;;;;;;;;;;;;;;;21.28;26.71;98330.69;4959710;28;19954;-73
2023/04/05 09:25:38;;;;;;;;;;;;;;;21.13;27.13;98330.00;4976867;28;19917;-77
2023/04/05 09:28:10;;;;;;;;;;;;;;;20.93;27.29;98335.19;4975527;28;19969;-74
2023/04/05 09:30:36;;;;;;;;;;;;;;;20.76;27.05;98329.34;4959446;28;20001;-75
2023/04/05 09:33:02;;;;;;;;;;;;;;;20.58;27.81;98330.59;4959595;28;19953;-74
2023/04/05 09:35:29;;;;;;;;;;;;;;;20.40;28.10;98333.72;4975234;28;19918;-75
2023/04/05 09:37:54;;;;;;;;;;;;;;;20.31;28.30;98334.84;4959542;28;19918;-76
2023/04/05 09:40:20;;;;;;;;;;;;;;;20.19;28.61;98331.91;4976558;28;20348;-74
2023/04/05 09:42:45;;;;;;;;;;;;;;;20.05;28.54;98338.03;4959006;28;19918;-72
2023/04/05 09:45:10;;;;;;;;;;;;;;;19.88;29.02;98332.19;4959323;28;20020;-74
2023/04/05 09:47:36;;;;;;;;;;;;;;;19.74;29.21;98340.94;4959200;28;19918;-74
2023/04/05 09:50:04;;;;;;;;;;;;;;;19.64;29.56;98342.06;4958712;28;19918;-75
2023/04/05 09:52:34;;;;;;;;;;;;;;;19.56;29.41;98341.31;4959610;28;20337;-76
2023/04/05 09:55:00;;;;;;;;;;;;;;;19.49;29.59;98333.31;4959648;28;19922;-75
2023/04/05 09:57:26;;;;;;;;;;;;;;;19.37;29.77;98334.75;4959083;28;19961;-73
2023/04/05 09:59:51;;;;;;;;;;;;;;;19.30;30.00;98327.56;4942781;28;19962;-75
2023/04/05 10:02:17;;;;;;;;;;;;;;;19.28;30.14;98334.06;4959053;28;19940;-75
2023/04/05 10:04:43;;;;;;;;;;;;;;;19.24;30.32;98335.41;4976136;28;19918;-74
2023/04/05 10:07:09;;;;;;;;;;;;;;;19.26;30.38;98336.88;4958938;28;19965;-75
2023/04/05 10:09:34;;;;;;;;;;;;;;;19.26;30.42;98336.03;4958876;28;19969;-75
2023/04/05 10:12:00;;;;;;;;;;;;;;;19.23;30.68;98333.75;4958593;28;19921;-75
2023/04/05 10:14:25;;;;;;;;;;;;;;;19.21;30.69;98333.13;4959954;28;20398;-75
2023/04/05 10:16:59;;;;;;;;;;;;;;;19.19;30.84;98343.06;4974605;28;19961;-76
2023/04/05 10:19:36;;;;;;;;;;;;;;;19.09;31.14;98343.34;4974682;28;19922;-76
2023/04/05 10:22:01;;;;;;;;;;;;;;;19.04;31.04;98335.97;4974222;28;20305;-74
2023/04/05 10:24:30;;;;;;;;;;;;;;;19.03;31.10;98336.94;4974440;28;19926;-74
2023/04/05 10:27:02;;;;;;;;;;;;;;;18.97;30.79;98343.78;4976037;28;20484;-75
2023/04/05 10:29:43;;;;;;;;;;;;;;;18.85;30.96;98347.03;4974298;28;19925;-74
2023/04/05 10:32:13;;;;;;;;;;;;;;;18.72;30.96;98342.34;4974389;28;19922;-75
2023/04/05 10:34:43;;;;;;;;;;;;;;;18.68;31.07;98347.16;4974673;28;20377;-75
2023/04/05 10:37:08;;;;;;;;;;;;;;;18.59;31.27;98350.88;4974110;28;20009;-77
2023/04/05 10:39:34;;;;;;;;;;;;;;;18.50;31.49;98352.78;4974450;28;20429;-75
2023/04/05 10:42:01;;;;;;;;;;;;;;;18.40;31.41;98347.72;4973918;28;19918;-76
2023/04/05 10:44:27;;;;;;;;;;;;;;;18.36;31.50;98354.34;4974089;28;19949;-76
2023/04/05 10:46:53;;;;;;;;;;;;;;;18.29;31.82;98348.13;4974726;28;19954;-74
2023/04/05 10:49:37;;;;;;;;;;;;;;;18.22;31.83;98345.38;4974287;28;20436;-75
2023/04/05 10:52:03;;;;;;;;;;;;;;;18.21;31.98;98349.00;4973810;28;20005;-74
2023/04/05 10:54:32;;;;;;;;;;;;;;;18.19;32.29;98356.28;4972842;28;20008;-74
2023/04/05 10:56:57;;;;;;;;;;;;;;;18.15;32.51;98347.06;4973700;28;19918;-76
2023/04/05 10:59:23;;;;;;;;;;;;;;;18.10;32.64;98356.53;4974232;28;20378;-73
2023/04/05 11:01:48;;;;;;;;;;;;;;;18.06;32.75;98350.78;4973440;28;20401;-74
2023/04/05 11:04:14;;;;;;;;;;;;;;;18.00;32.87;98360.19;4973294;28;20464;-76
2023/04/05 11:06:40;;;;;;;;;;;;;;;17.98;32.63;98350.78;4974426;28;19965;-77
2023/04/05 11:09:15;;;;;;;;;;;;;;;17.97;32.62;98355.25;4973724;28;19918;-73
2023/04/05 11:11:41;;;;;;;;;;;;;;;17.96;32.84;98363.34;4972849;28;19918;-75
2023/04/05 11:14:16;;;;;;;;;;;;;;;17.89;32.81;98358.75;4965057;28;19922;-74
2023/04/05 11:16:41;;;;;;;;;;;;;;;17.81;32.85;98352.69;4955456;29;20460;-77
2023/04/05 11:19:06;;;;;;;;;;;;;;;17.78;39.00;98360.94;4954026;29;19919;-77
2023/04/05 11:21:32;;;;;;;;;;;;;;;17.75;37.37;98356.81;4938095;29;19950;-78
2023/04/05 11:24:02;;;;;;;;;;;;;;;17.67;36.31;98351.59;4954148;29;20029;-75
2023/04/05 11:26:31;;;;;;;;;;;;;;;17.64;35.92;98357.22;4945202;28;19918;-75
2023/04/05 11:28:57;;;;;;;;;;;;;;;17.56;35.63;98358.06;4972961;28;20377;-77
2023/04/05 11:31:25;;;;;;;;;;;;;;;17.53;35.47;98353.94;4973356;28;20016;-74
2023/04/05 11:33:55;;;;;;;;;;;;;;;17.50;35.04;98349.00;4957995;28;20371;-76
2023/04/05 11:36:31;;;;;;;;;;;;;;;17.45;35.00;98355.81;4957122;28;19925;-75
2023/04/05 11:39:15;;;;;;;;;;;;;;;17.33;35.08;98353.53;4957152;28;19957;-73
2023/04/05 11:41:40;;;;;;;;;;;;;;;17.25;35.15;98355.34;4974505;28;19918;-75
2023/04/05 11:44:05;;;;;;;;;;;;;;;17.18;35.31;98355.22;4957157;28;19918;-74
2023/04/05 11:46:31;;;;;;;;;;;;;;;17.15;35.06;98356.38;4956827;28;20297;-74
2023/04/05 11:48:56;;;;;;;;;;;;;;;17.13;35.18;98362.81;4956969;28;20293;-75
2023/04/05 11:51:21;;;;;;;;;;;;;;;17.06;35.38;98361.84;4956873;28;19925;-75
2023/04/05 11:53:47;;;;;;;;;;;;;;;17.00;35.47;98363.34;4956582;28;19986;-74
2023/04/05 11:56:14;;;;;;;;;;;;;;;16.97;35.70;98361.03;4957003;28;20012;-77
2023/04/05 11:58:40;;;;;;;;;;;;;;;16.95;35.64;98363.00;4957185;28;19941;-75
2023/04/05 12:01:06;;;;;;;;;;;;;;;16.91;35.61;98359.88;4972843;28;20394;-77
2023/04/05 12:03:31;;;;;;;;;;;;;;;16.87;35.80;98357.75;4956908;28;19969;-78
2023/04/05 12:05:57;;;;;;;;;;;;;;;16.80;35.67;98357.56;4956835;28;19918;-77
2023/04/05 12:08:23;;;;;;;;;;;;;;;16.80;35.68;98358.38;4957166;28;19918;-75
2023/04/05 12:10:54;;;;;;;;;;;;;;;16.75;35.93;98355.41;4956663;28;20016;-74
2023/04/05 12:13:27;;;;;;;;;;;;;;;16.71;35.87;98354.09;4973968;28;19922;-74
2023/04/05 12:15:52;;;;;;;;;;;;;;;16.69;36.04;98355.25;4974436;28;19926;-77
2023/04/05 12:18:17;;;;;;;;;;;;;;;16.67;36.21;98351.94;4957129;28;20246;-76
2023/04/05 12:20:43;;;;;;;;;;;;;;;16.67;36.33;98354.59;4956721;28;19925;-74
2023/04/05 12:23:08;;;;;;;;;;;;;;;16.67;36.29;98357.22;4956653;28;19922;-74
2023/04/05 12:25:35;;;;;;;;;;;;;;;16.64;36.18;98351.31;4956785;28;19922;-76
2023/04/05 12:28:04;;;;;;;;;;;;;;;16.58;36.32;98351.97;4956685;28;20320;-74
2023/04/05 12:30:35;;;;;;;;;;;;;;;16.52;36.20;98349.16;4956452;28;20365;-75
2023/04/05 12:33:02;;;;;;;;;;;;;;;16.48;36.15;98353.09;4957365;28;20349;-75
2023/04/05 12:35:34;;;;;;;;;;;;;;;16.41;36.26;98345.88;4956884;28;19918;-74
2023/04/05 12:38:06;;;;;;;;;;;;;;;16.39;36.13;98349.66;4957388;28;20360;-74
2023/04/05 12:40:35;;;;;;;;;;;;;;;16.35;36.25;98350.97;4940670;28;19914;-77
2023/04/05 12:43:01;;;;;;;;;;;;;;;16.30;36.47;98350.63;4956580;28;20400;-75
2023/04/05 12:45:26;;;;;;;;;;;;;;;16.26;36.43;98344.88;4972418;28;20012;-74